createdAt,value
2017-10-01T00:02:13.575Z,67.84
2017-10-01T00:04:41.474Z,67.66
2017-10-01T00:07:10.022Z,67.52
2017-10-01T00:09:38.285Z,67.65
2017-10-01T00:12:05.852Z,67.45
2017-10-01T00:14:33.402Z,67.92
2017-10-01T00:17:01.071Z,68.32
2017-10-01T00:19:29.454Z,68.30
2017-10-01T00:21:57.106Z,68.37
2017-10-01T00:24:24.979Z,68.29
2017-10-01T00:26:52.864Z,68.52
2017-10-01T00:29:20.873Z,68.80
2017-10-01T00:31:48.485Z,69.11
2017-10-01T00:34:16.045Z,69.47
2017-10-01T00:36:43.888Z,69.46
2017-10-01T00:39:11.619Z,69.35
2017-10-01T00:41:39.375Z,69.44
2017-10-01T00:44:07.147Z,69.31
2017-10-01T00:46:35.645Z,69.17
2017-10-01T00:49:03.686Z,69.57
2017-10-01T00:51:31.337Z,69.57
2017-10-01T00:53:59.212Z,69.47
2017-10-01T00:56:26.798Z,69.81
2017-10-01T00:58:54.417Z,69.91
2017-10-01T01:01:22.022Z,68.90
2017-10-01T01:03:49.794Z,69.58
2017-10-01T01:06:17.625Z,69.23
2017-10-01T01:08:45.535Z,69.69
2017-10-01T01:11:13.120Z,69.84
2017-10-01T01:13:40.759Z,69.74
2017-10-01T01:16:08.337Z,69.68
2017-10-01T01:18:35.901Z,68.80
2017-10-01T01:21:03.554Z,68.60
2017-10-01T01:23:31.867Z,68.29
2017-10-01T01:25:59.529Z,68.55
2017-10-01T01:28:27.323Z,68.57
2017-10-01T01:30:54.933Z,68.22
2017-10-01T01:33:22.731Z,68.49
2017-10-01T01:35:50.567Z,68.56
2017-10-01T01:38:18.465Z,68.84
2017-10-01T01:40:46.086Z,68.15
2017-10-01T01:43:15.093Z,67.93
2017-10-01T01:45:43.723Z,68.58
2017-10-01T01:48:11.412Z,68.34
2017-10-01T01:50:39.268Z,68.43
2017-10-01T01:53:06.934Z,68.46
2017-10-01T01:55:35.242Z,68.07
2017-10-01T01:58:03.110Z,68.35
2017-10-01T02:00:30.733Z,68.07
2017-10-01T02:02:58.303Z,67.90
2017-10-01T02:05:26.007Z,68.33
2017-10-01T02:07:53.614Z,68.29
2017-10-01T02:10:21.613Z,67.74
2017-10-01T02:12:49.570Z,68.15
2017-10-01T02:15:17.177Z,67.82
2017-10-01T02:17:45.770Z,67.65
2017-10-01T02:20:14.133Z,67.12
2017-10-01T02:22:42.034Z,68.08
2017-10-01T02:25:10.054Z,67.30
2017-10-01T02:27:37.748Z,67.25
2017-10-01T02:30:05.953Z,67.28
2017-10-01T02:32:33.620Z,66.71
2017-10-01T02:35:02.171Z,66.85
2017-10-01T02:37:30.182Z,67.33
2017-10-01T02:39:58.015Z,66.64
2017-10-01T02:42:25.982Z,66.45
2017-10-01T02:44:53.652Z,67.37
2017-10-01T02:47:21.266Z,67.20
2017-10-01T02:49:49.395Z,66.75
2017-10-01T02:52:17.719Z,66.37
2017-10-01T02:54:45.297Z,66.71
2017-10-01T02:57:12.959Z,66.98
2017-10-01T02:59:40.608Z,66.85
2017-10-01T03:02:10.190Z,67.06
2017-10-01T03:04:37.831Z,66.96
2017-10-01T03:07:05.637Z,66.74
2017-10-01T03:09:34.137Z,66.97
2017-10-01T03:12:01.724Z,67.02
2017-10-01T03:14:29.628Z,67.05
2017-10-01T03:16:57.259Z,67.80
2017-10-01T03:19:25.129Z,67.31
2017-10-01T03:21:52.979Z,66.50
2017-10-01T03:24:20.803Z,66.41
2017-10-01T03:26:49.903Z,66.99
2017-10-01T03:29:17.559Z,67.05
2017-10-01T03:31:45.443Z,66.68
2017-10-01T03:34:13.988Z,67.28
2017-10-01T03:36:42.453Z,67.18
2017-10-01T03:39:10.147Z,66.70
2017-10-01T03:41:38.039Z,66.99
2017-10-01T03:44:06.125Z,67.45
2017-10-01T03:46:33.768Z,67.49
2017-10-01T03:49:01.659Z,67.20
2017-10-01T03:51:30.007Z,66.82
2017-10-01T03:53:57.868Z,66.52
2017-10-01T03:56:26.401Z,66.27
2017-10-01T03:58:53.981Z,66.22
2017-10-01T04:01:22.063Z,67.37
2017-10-01T04:03:49.889Z,67.17
2017-10-01T04:06:17.707Z,66.80
2017-10-01T04:08:45.482Z,66.52
2017-10-01T04:11:14.167Z,66.70
2017-10-01T04:13:41.777Z,66.10
2017-10-01T04:16:09.455Z,65.62
2017-10-01T04:18:37.076Z,66.04
2017-10-01T04:21:05.463Z,65.51
2017-10-01T04:23:33.563Z,65.61
2017-10-01T04:26:01.319Z,64.86
2017-10-01T04:28:29.874Z,65.49
2017-10-01T04:30:59.116Z,65.08
2017-10-01T04:33:26.732Z,65.43
2017-10-01T04:35:54.557Z,66.12
2017-10-01T04:38:22.942Z,65.57
2017-10-01T04:40:50.577Z,65.61
2017-10-01T04:43:18.201Z,65.80
2017-10-01T04:45:46.997Z,65.89
2017-10-01T04:48:14.595Z,65.58
2017-10-01T04:50:42.947Z,65.49
2017-10-01T04:53:11.530Z,65.08
2017-10-01T04:55:40.253Z,65.34
2017-10-01T04:58:07.802Z,65.25
2017-10-01T05:00:36.119Z,65.16
2017-10-01T05:03:03.683Z,64.79
2017-10-01T05:05:31.321Z,64.82
2017-10-01T05:07:59.137Z,64.90
2017-10-01T05:10:26.803Z,65.36
2017-10-01T05:12:54.843Z,65.14
2017-10-01T05:15:22.814Z,65.57
2017-10-01T05:17:50.407Z,65.46
2017-10-01T05:20:18.166Z,65.28
2017-10-01T05:22:45.850Z,65.06
2017-10-01T05:25:13.810Z,64.80
2017-10-01T05:27:41.382Z,63.73
2017-10-01T05:30:09.106Z,64.39
2017-10-01T05:32:36.677Z,64.18
2017-10-01T05:35:04.307Z,63.74
2017-10-01T05:37:32.420Z,63.59
2017-10-01T05:40:00.213Z,63.58
2017-10-01T05:42:28.812Z,63.90
2017-10-01T05:44:56.458Z,63.91
2017-10-01T05:47:24.009Z,63.99
2017-10-01T05:49:51.786Z,63.38
2017-10-01T05:52:19.578Z,63.50
2017-10-01T05:54:47.231Z,63.17
2017-10-01T05:57:15.016Z,63.98
2017-10-01T05:59:42.626Z,63.59
2017-10-01T06:02:10.298Z,63.31
2017-10-01T06:04:37.901Z,63.27
2017-10-01T06:07:05.710Z,63.05
2017-10-01T06:09:33.330Z,63.27
2017-10-01T06:12:01.000Z,63.87
2017-10-01T06:14:29.550Z,63.79
2017-10-01T06:16:57.150Z,64.32
2017-10-01T06:19:24.922Z,64.28
2017-10-01T06:21:52.971Z,64.12
2017-10-01T06:24:20.696Z,63.75
2017-10-01T06:26:48.253Z,63.85
2017-10-01T06:29:16.697Z,62.55
2017-10-01T06:31:44.365Z,61.44
2017-10-01T06:34:12.091Z,61.92
2017-10-01T06:36:39.680Z,61.91
2017-10-01T06:39:07.368Z,62.23
2017-10-01T06:41:35.041Z,61.11
2017-10-01T06:44:02.718Z,59.67
2017-10-01T06:46:31.000Z,60.97
2017-10-01T06:48:58.762Z,60.08
2017-10-01T06:51:26.497Z,59.64
2017-10-01T06:53:54.247Z,58.81
2017-10-01T06:56:21.925Z,57.53
2017-10-01T06:59:04.253Z,56.56
2017-10-01T07:01:32.477Z,55.16
2017-10-01T07:04:00.961Z,54.16
2017-10-01T07:06:40.915Z,52.96
2017-10-01T07:09:09.775Z,51.13
2017-10-01T07:11:39.027Z,49.48
2017-10-01T07:14:07.007Z,48.79
2017-10-01T07:16:35.585Z,44.94
2017-10-01T07:19:03.481Z,44.96
2017-10-01T07:21:31.205Z,45.26
2017-10-01T07:23:59.138Z,44.71
2017-10-01T07:26:27.294Z,44.57
2017-10-01T07:28:55.070Z,45.90
2017-10-01T07:31:23.082Z,44.27
2017-10-01T07:33:50.861Z,45.33
2017-10-01T07:36:18.622Z,44.80
2017-10-01T07:38:48.200Z,45.43
2017-10-01T07:41:15.953Z,43.97
2017-10-01T07:43:44.878Z,43.63
2017-10-01T07:46:12.619Z,41.64
2017-10-01T07:48:40.973Z,43.59
2017-10-01T07:51:08.770Z,46.50
2017-10-01T07:53:36.550Z,48.24
2017-10-01T07:56:04.321Z,50.88
2017-10-01T07:58:32.098Z,52.08
2017-10-01T08:00:59.852Z,53.86
2017-10-01T08:03:28.085Z,54.44
2017-10-01T08:05:55.701Z,55.31
2017-10-01T08:08:23.280Z,55.78
2017-10-01T08:10:51.487Z,61.19
2017-10-01T08:13:20.020Z,55.96
2017-10-01T08:15:47.640Z,56.08
2017-10-01T08:18:15.421Z,57.15
2017-10-01T08:20:43.071Z,57.26
2017-10-01T08:23:10.706Z,57.09
2017-10-01T08:25:38.607Z,57.12
2017-10-01T08:28:06.390Z,56.63
2017-10-01T08:30:34.220Z,57.52
2017-10-01T08:33:04.020Z,56.54
2017-10-01T08:35:32.916Z,55.10
2017-10-01T08:38:01.219Z,55.93
2017-10-01T08:40:29.480Z,56.21
2017-10-01T08:42:57.527Z,55.89
2017-10-01T08:45:25.239Z,58.00
2017-10-01T08:47:52.771Z,55.32
2017-10-01T08:50:21.138Z,55.38
2017-10-01T08:52:48.852Z,56.10
2017-10-01T08:55:16.583Z,56.40
2017-10-01T08:57:44.142Z,55.98
2017-10-01T09:00:11.866Z,56.65
2017-10-01T09:02:39.592Z,57.76
2017-10-01T09:05:07.929Z,57.23
2017-10-01T09:07:36.519Z,57.61
2017-10-01T09:10:04.167Z,57.72
2017-10-01T09:12:31.940Z,57.51
2017-10-01T09:14:59.941Z,57.04
2017-10-01T09:17:27.866Z,57.14
2017-10-01T09:19:55.398Z,56.97
2017-10-01T09:22:22.956Z,56.82
2017-10-01T09:24:51.137Z,56.64
2017-10-01T09:27:18.914Z,57.45
2017-10-01T09:29:47.094Z,57.96
2017-10-01T09:32:14.679Z,57.79
2017-10-01T09:34:43.286Z,58.15
2017-10-01T09:37:10.897Z,57.94
2017-10-01T09:39:38.460Z,58.75
2017-10-01T09:42:05.991Z,58.16
2017-10-01T09:44:34.526Z,58.47
2017-10-01T09:47:02.079Z,57.37
2017-10-01T09:49:29.675Z,57.52
2017-10-01T09:51:57.442Z,57.47
2017-10-01T09:54:24.985Z,58.15
2017-10-01T09:56:52.746Z,57.87
2017-10-01T09:59:20.344Z,58.07
2017-10-01T10:01:48.117Z,58.46
2017-10-01T10:04:15.831Z,58.35
2017-10-01T10:06:44.173Z,58.01
2017-10-01T10:09:12.086Z,58.53
2017-10-01T10:11:39.745Z,57.48
2017-10-01T10:14:07.610Z,57.49
2017-10-01T10:16:35.394Z,58.62
2017-10-01T10:19:03.196Z,58.12
2017-10-01T10:21:30.958Z,58.71
2017-10-01T10:23:58.775Z,58.04
2017-10-01T10:26:27.530Z,58.59
2017-10-01T10:28:55.316Z,58.83
2017-10-01T10:34:04.922Z,58.06
2017-10-01T10:36:32.500Z,58.44
2017-10-01T10:39:00.011Z,57.09
2017-10-01T10:41:27.816Z,56.65
2017-10-01T10:43:55.867Z,57.78
2017-10-01T10:46:23.401Z,58.14
2017-10-01T10:48:51.027Z,57.74
2017-10-01T10:51:19.600Z,57.13
2017-10-01T10:53:47.213Z,56.92
2017-10-01T10:56:14.765Z,56.89
2017-10-01T10:58:42.343Z,57.91
2017-10-01T11:01:09.963Z,58.21
2017-10-01T11:03:37.811Z,58.95
2017-10-01T11:06:05.399Z,58.99
2017-10-01T11:08:32.988Z,59.14
2017-10-01T11:11:00.594Z,58.44
2017-10-01T11:13:28.334Z,59.11
2017-10-01T11:15:55.941Z,59.29
2017-10-01T11:18:23.582Z,59.93
2017-10-01T11:20:51.187Z,60.43
2017-10-01T11:23:18.819Z,59.51
2017-10-01T11:25:46.572Z,60.06
2017-10-01T11:28:14.877Z,59.90
2017-10-01T11:30:42.514Z,59.66
2017-10-01T11:33:10.037Z,58.65
2017-10-01T11:35:38.093Z,58.38
2017-10-01T11:38:05.678Z,57.95
2017-10-01T11:40:33.312Z,57.53
2017-10-01T11:43:01.043Z,58.13
2017-10-01T11:45:28.689Z,58.61
2017-10-01T11:47:57.264Z,58.78
2017-10-01T11:50:24.779Z,57.48
2017-10-01T11:52:53.211Z,58.34
2017-10-01T11:55:20.814Z,57.99
2017-10-01T11:57:48.368Z,58.27
2017-10-01T12:00:15.993Z,59.04
2017-10-01T12:02:43.748Z,59.33
2017-10-01T12:05:11.364Z,59.36
2017-10-01T12:07:39.881Z,58.95
2017-10-01T12:10:08.647Z,60.06
2017-10-01T12:12:36.282Z,59.93
2017-10-01T12:15:05.422Z,58.74
2017-10-01T12:17:32.964Z,59.71
2017-10-01T12:20:00.702Z,60.37
2017-10-01T12:22:28.293Z,60.03
2017-10-01T12:24:56.058Z,59.35
2017-10-01T12:27:23.615Z,60.16
2017-10-01T12:29:52.720Z,59.94
2017-10-01T12:32:20.482Z,59.13
2017-10-01T12:34:48.278Z,60.10
2017-10-01T12:37:16.579Z,60.37
2017-10-01T12:39:44.922Z,59.66
2017-10-01T12:42:12.987Z,58.42
2017-10-01T12:44:40.801Z,58.43
2017-10-01T12:47:08.405Z,58.93
2017-10-01T12:49:36.922Z,58.03
2017-10-01T12:52:04.558Z,58.44
2017-10-01T12:54:32.381Z,58.81
2017-10-01T12:56:59.978Z,58.82
2017-10-01T12:59:28.002Z,58.50
2017-10-01T13:02:01.287Z,57.83
2017-10-01T13:04:29.447Z,57.93
2017-10-01T13:06:57.133Z,58.38
2017-10-01T13:09:24.802Z,58.32
2017-10-01T13:11:52.615Z,58.27
2017-10-01T13:14:21.187Z,57.97
2017-10-01T13:16:48.751Z,57.95
2017-10-01T13:19:16.699Z,58.36
2017-10-01T13:21:44.370Z,59.12
2017-10-01T13:24:12.054Z,59.63
2017-10-01T13:26:39.687Z,59.76
2017-10-01T13:29:07.303Z,58.15
2017-10-01T13:31:35.733Z,58.32
2017-10-01T13:34:03.418Z,59.25
2017-10-01T13:36:31.003Z,58.87
2017-10-01T13:39:03.530Z,57.78
2017-10-01T13:41:31.291Z,58.43
2017-10-01T13:43:59.089Z,58.14
2017-10-01T13:46:27.630Z,57.92
2017-10-01T13:48:55.203Z,58.10
2017-10-01T13:51:22.847Z,57.83
2017-10-01T13:53:50.482Z,58.34
2017-10-01T13:56:18.086Z,58.25
2017-10-01T13:58:46.947Z,58.95
2017-10-01T14:01:15.361Z,59.16
2017-10-01T14:03:43.161Z,59.54
2017-10-01T14:06:12.691Z,58.13
2017-10-01T14:08:40.273Z,59.11
2017-10-01T14:11:08.083Z,59.90
2017-10-01T14:13:36.511Z,59.76
2017-10-01T14:16:04.499Z,60.05
2017-10-01T14:18:34.402Z,60.32
2017-10-01T14:21:07.919Z,60.02
2017-10-01T14:23:41.380Z,60.42
2017-10-01T14:26:15.479Z,59.61
2017-10-01T14:28:43.384Z,59.81
2017-10-01T14:31:17.846Z,60.26
2017-10-01T14:33:50.707Z,60.54
2017-10-01T14:36:21.198Z,59.65
2017-10-01T14:38:50.718Z,59.91
2017-10-01T14:41:19.553Z,60.77
2017-10-01T14:43:47.234Z,61.19
2017-10-01T14:46:15.440Z,61.60
2017-10-01T14:48:45.229Z,60.93
2017-10-01T14:51:14.923Z,61.50
2017-10-01T14:53:44.771Z,61.25
2017-10-01T14:56:14.294Z,61.40
2017-10-01T14:58:41.997Z,61.69
2017-10-01T15:01:12.176Z,61.96
2017-10-01T15:03:42.046Z,61.75
2017-10-01T15:06:10.084Z,62.06
2017-10-01T15:08:39.055Z,62.80
2017-10-01T15:11:06.854Z,63.35
2017-10-01T15:13:34.555Z,63.51
2017-10-01T15:16:05.612Z,63.47
2017-10-01T15:27:57.133Z,63.97
2017-10-01T15:30:26.880Z,64.30
2017-10-01T15:33:00.380Z,64.10
2017-10-01T15:35:29.201Z,64.38
2017-10-01T15:38:15.939Z,64.45
2017-10-01T15:40:45.260Z,64.69
2017-10-01T15:43:14.447Z,65.01
2017-10-01T15:45:42.238Z,64.67
2017-10-01T15:48:09.967Z,65.18
2017-10-01T15:51:02.676Z,65.00
2017-10-01T15:56:57.431Z,64.03
2017-10-01T15:59:26.840Z,63.34
2017-10-01T16:01:54.442Z,63.23
2017-10-01T16:04:22.384Z,63.43
2017-10-01T16:06:52.379Z,63.65
2017-10-01T16:09:20.370Z,63.82
2017-10-01T16:11:48.298Z,63.18
2017-10-01T16:14:16.442Z,63.40
2017-10-01T16:16:54.049Z,62.85
2017-10-01T16:19:22.226Z,63.41
2017-10-01T16:21:49.787Z,63.68
2017-10-01T16:24:18.194Z,63.75
2017-10-01T16:26:46.717Z,63.74
2017-10-01T16:29:15.214Z,63.97
2017-10-01T16:31:42.905Z,64.32
2017-10-01T16:34:10.614Z,63.72
2017-10-01T16:36:39.095Z,63.87
2017-10-01T16:39:06.812Z,64.12
2017-10-01T16:41:35.212Z,64.37
2017-10-01T16:44:03.519Z,64.40
2017-10-01T16:46:31.151Z,64.41
2017-10-01T16:48:58.745Z,64.69
2017-10-01T16:51:26.706Z,64.52
2017-10-01T16:53:54.528Z,64.72
2017-10-01T16:56:22.856Z,64.56
2017-10-01T16:58:50.581Z,64.85
2017-10-01T17:01:18.385Z,65.13
2017-10-01T17:03:46.167Z,65.76
2017-10-01T17:06:14.357Z,66.14
2017-10-01T17:08:42.148Z,66.53
2017-10-01T17:11:09.952Z,66.33
2017-10-01T17:13:38.018Z,66.41
2017-10-01T17:16:05.670Z,66.49
2017-10-01T17:18:35.224Z,66.61
2017-10-01T17:21:03.147Z,67.31
2017-10-01T17:23:33.358Z,67.02
2017-10-01T17:26:02.069Z,66.35
2017-10-01T17:28:29.843Z,66.53
2017-10-01T17:30:57.616Z,67.29
2017-10-01T17:33:25.362Z,66.15
2017-10-01T17:35:53.610Z,66.20
2017-10-01T17:38:21.323Z,66.37
2017-10-01T17:40:49.474Z,66.54
2017-10-01T17:43:17.181Z,71.43
2017-10-01T17:45:44.957Z,66.54
2017-10-01T17:48:13.610Z,66.84
2017-10-01T17:50:42.047Z,66.84
2017-10-01T17:53:19.680Z,67.01
2017-10-01T17:55:48.341Z,66.76
2017-10-01T17:58:16.874Z,67.08
2017-10-01T18:00:44.925Z,66.42
2017-10-01T18:03:17.943Z,66.35
2017-10-01T18:05:45.515Z,66.73
2017-10-01T18:08:13.093Z,66.41
2017-10-01T18:10:41.796Z,66.25
2017-10-01T18:13:09.481Z,66.46
2017-10-01T18:15:37.981Z,66.50
2017-10-01T18:18:05.851Z,66.19
2017-10-01T18:20:33.937Z,66.59
2017-10-01T18:23:02.031Z,66.46
2017-10-01T18:25:30.055Z,66.56
2017-10-01T18:27:58.825Z,66.81
2017-10-01T18:30:26.431Z,66.80
2017-10-01T18:32:54.209Z,66.90
2017-10-01T18:35:22.074Z,67.02
2017-10-01T18:37:50.318Z,66.96
2017-10-01T18:40:17.963Z,67.45
2017-10-01T18:42:46.000Z,67.44
2017-10-01T18:45:15.399Z,67.37
2017-10-01T18:47:43.910Z,67.69
2017-10-01T18:50:13.162Z,67.72
2017-10-01T18:52:40.852Z,68.22
2017-10-01T18:55:13.432Z,67.97
2017-10-01T18:57:43.779Z,68.16
2017-10-01T19:00:13.021Z,68.22
2017-10-01T19:02:41.579Z,68.34
2017-10-01T19:05:09.151Z,68.58
2017-10-01T19:07:39.853Z,68.60
2017-10-01T19:10:07.522Z,69.12
2017-10-01T19:12:35.939Z,69.58
2017-10-01T19:18:32.087Z,70.74
2017-10-01T19:21:00.476Z,70.83
2017-10-01T19:23:28.895Z,70.85
2017-10-01T19:25:56.547Z,70.75
2017-10-01T19:28:26.972Z,70.83
2017-10-01T19:30:54.585Z,70.77
2017-10-01T19:33:22.450Z,70.63
2017-10-01T19:35:51.984Z,70.22
2017-10-01T19:38:21.688Z,70.71
2017-10-01T19:40:51.564Z,70.65
2017-10-01T19:43:21.439Z,70.37
2017-10-01T19:45:54.069Z,70.62
2017-10-01T19:48:25.787Z,70.33
2017-10-01T19:50:58.428Z,70.57
2017-10-01T19:56:04.787Z,71.03
2017-10-01T20:01:27.150Z,71.77
2017-10-01T20:03:58.214Z,71.68
2017-10-01T20:06:29.118Z,71.36
2017-10-01T20:09:00.618Z,71.47
2017-10-01T20:11:32.987Z,71.77
2017-10-01T20:14:08.454Z,71.94
2017-10-01T20:16:36.182Z,71.82
2017-10-01T20:19:03.784Z,71.86
2017-10-01T20:21:32.437Z,71.95
2017-10-01T20:24:00.490Z,71.87
2017-10-01T20:26:28.235Z,71.73
2017-10-01T20:28:56.165Z,72.40
2017-10-01T20:31:24.796Z,72.36
2017-10-01T20:33:52.948Z,72.28
2017-10-01T20:36:21.133Z,72.26
2017-10-01T20:38:49.903Z,72.26
2017-10-01T20:41:18.844Z,72.26
2017-10-01T20:43:46.677Z,72.69
2017-10-01T20:46:14.997Z,72.75
2017-10-01T20:48:43.653Z,72.84
2017-10-01T20:51:11.423Z,73.38
2017-10-01T20:53:39.109Z,73.46
2017-10-01T20:56:06.777Z,72.74
2017-10-01T20:58:35.597Z,73.22
2017-10-01T21:01:03.214Z,72.58
2017-10-01T21:03:31.049Z,72.51
2017-10-01T21:05:58.831Z,72.49
2017-10-01T21:08:26.449Z,72.67
2017-10-01T21:10:54.084Z,72.53
2017-10-01T21:13:21.673Z,72.47
2017-10-01T21:15:49.459Z,72.34
2017-10-01T21:18:17.803Z,72.32
2017-10-01T21:20:45.421Z,72.11
2017-10-01T21:23:13.022Z,72.10
2017-10-01T21:25:40.638Z,72.16
2017-10-01T21:28:08.612Z,72.15
2017-10-01T21:30:36.921Z,72.54
2017-10-01T21:33:04.558Z,72.55
2017-10-01T21:35:32.933Z,72.25
2017-10-01T21:38:00.592Z,72.22
2017-10-01T21:40:29.016Z,72.10
2017-10-01T21:42:56.659Z,71.70
2017-10-01T21:45:25.313Z,71.55
2017-10-01T21:47:53.546Z,71.84
2017-10-01T21:50:21.587Z,71.59
2017-10-01T21:52:49.383Z,71.60
2017-10-01T21:55:17.087Z,71.77
2017-10-01T21:57:44.681Z,71.37
2017-10-01T22:00:12.291Z,71.64
2017-10-01T22:02:41.398Z,71.55
2017-10-01T22:05:09.235Z,71.28
2017-10-01T22:07:36.842Z,71.80
2017-10-01T22:10:04.692Z,71.80
2017-10-01T22:12:32.338Z,71.40
2017-10-01T22:15:00.897Z,71.71
2017-10-01T22:17:29.166Z,71.92
2017-10-01T22:19:56.760Z,71.74
2017-10-01T22:22:24.440Z,71.64
2017-10-01T22:24:52.957Z,71.59
2017-10-01T22:27:21.643Z,71.84
2017-10-01T22:29:50.157Z,71.70
2017-10-01T22:32:18.112Z,72.14
2017-10-01T22:34:45.878Z,72.47
2017-10-01T22:37:13.542Z,72.83
2017-10-01T22:39:41.323Z,73.27
2017-10-01T22:42:09.630Z,73.32
2017-10-01T22:44:37.557Z,73.21
2017-10-01T22:47:05.587Z,73.42
2017-10-01T22:49:33.457Z,73.02
2017-10-01T22:52:01.091Z,73.00
2017-10-01T22:54:28.742Z,72.84
2017-10-01T22:56:56.653Z,72.80
2017-10-01T22:59:39.834Z,73.01
2017-10-01T23:02:07.483Z,72.96
2017-10-01T23:04:35.084Z,73.04
2017-10-01T23:07:02.839Z,73.37
2017-10-01T23:09:30.410Z,73.43
2017-10-01T23:11:58.194Z,73.65
2017-10-01T23:14:25.830Z,73.89
2017-10-01T23:16:53.986Z,73.91
2017-10-01T23:19:21.613Z,74.02
2017-10-01T23:21:50.638Z,74.07
2017-10-01T23:24:18.269Z,73.86
2017-10-01T23:26:46.274Z,73.58
2017-10-01T23:29:13.873Z,73.70
2017-10-01T23:31:41.500Z,73.43
2017-10-01T23:34:09.299Z,73.80
2017-10-01T23:36:36.832Z,74.00
2017-10-01T23:39:04.437Z,74.71
2017-10-01T23:41:33.076Z,74.02
2017-10-01T23:44:00.974Z,74.34
2017-10-01T23:46:28.524Z,74.16
2017-10-01T23:48:56.204Z,74.29
2017-10-01T23:51:23.747Z,74.23
2017-10-01T23:53:51.376Z,74.88
2017-10-01T23:56:20.650Z,74.59
2017-10-01T23:58:48.257Z,74.35
